createdAt,value
2023-04-03T00:01:22.977Z,1.72
2023-04-03T00:06:22.902Z,1.83
2023-04-03T00:11:24.842Z,1.77
2023-04-03T00:16:22.788Z,1.72
2023-04-03T00:21:31.589Z,1.86
2023-04-03T00:26:22.717Z,1.68
2023-04-03T00:31:22.605Z,1.59
2023-04-03T00:36:22.615Z,1.52
2023-04-03T00:41:22.460Z,1.54
2023-04-03T00:46:22.502Z,1.55
2023-04-03T00:51:22.393Z,1.47
2023-04-03T00:56:22.398Z,1.47
2023-04-03T01:01:22.364Z,1.47
2023-04-03T01:06:22.294Z,1.42
2023-04-03T01:11:22.211Z,1.41
2023-04-03T01:16:22.292Z,1.34
2023-04-03T01:21:22.072Z,1.29
2023-04-03T01:26:22.073Z,1.24
2023-04-03T01:31:22.113Z,1.32
2023-04-03T01:36:21.913Z,1.27
2023-04-03T01:41:21.865Z,1.26
2023-04-03T01:46:21.877Z,1.26
2023-04-03T01:51:21.824Z,1.20
2023-04-03T01:56:21.738Z,1.14
2023-04-03T02:01:21.812Z,1.18
2023-04-03T02:06:21.628Z,1.16
2023-04-03T02:11:21.686Z,1.14
2023-04-03T02:16:21.517Z,1.11
2023-04-03T02:21:21.519Z,1.02
2023-04-03T02:26:21.428Z,0.98
2023-04-03T02:31:21.376Z,1.04
2023-04-03T02:36:21.412Z,0.98
2023-04-03T02:41:21.437Z,1.00
2023-04-03T02:46:21.225Z,1.04
2023-04-03T02:51:22.143Z,1.00
2023-04-03T02:56:21.041Z,0.97
2023-04-03T03:01:21.053Z,0.94
2023-04-03T03:06:20.971Z,0.88
2023-04-03T03:11:20.927Z,0.87
2023-04-03T03:16:20.926Z,0.90
2023-04-03T03:21:20.896Z,0.80
2023-04-03T03:26:20.757Z,0.84
2023-04-03T03:31:20.766Z,0.80
2023-04-03T03:36:20.743Z,0.88
2023-04-03T03:41:20.611Z,0.87
2023-04-03T03:46:20.594Z,0.83
2023-04-03T03:51:20.524Z,0.78
2023-04-03T03:56:20.445Z,0.79
2023-04-03T04:01:20.389Z,0.88
2023-04-03T04:06:20.351Z,0.87
2023-04-03T04:11:20.346Z,0.83
2023-04-03T04:16:20.341Z,0.76
2023-04-03T04:21:20.161Z,0.87
2023-04-03T04:26:20.157Z,0.90
2023-04-03T04:31:20.125Z,0.93
2023-04-03T04:36:20.045Z,0.94
2023-04-03T04:41:19.916Z,0.90
2023-04-03T04:46:19.899Z,0.83
2023-04-03T04:51:19.836Z,0.75
2023-04-03T04:56:19.824Z,0.70
2023-04-03T05:01:19.801Z,0.78
2023-04-03T05:06:19.658Z,0.80
2023-04-03T05:11:19.722Z,0.73
2023-04-03T05:16:19.644Z,0.80
2023-04-03T05:21:19.480Z,0.84
2023-04-03T05:26:19.519Z,0.80
2023-04-03T05:31:19.465Z,0.97
2023-04-03T05:36:19.383Z,1.08
2023-04-03T05:41:19.336Z,1.20
2023-04-03T05:46:19.523Z,1.41
2023-04-03T05:51:19.161Z,1.59
2023-04-03T05:56:19.139Z,1.60
2023-04-03T06:01:19.048Z,1.70
2023-04-03T06:06:19.009Z,1.73
2023-04-03T06:11:18.946Z,2.02
2023-04-03T06:16:18.874Z,2.17
2023-04-03T06:21:27.745Z,2.46
2023-04-03T06:26:18.818Z,2.48
2023-04-03T06:31:18.761Z,2.66
2023-04-03T06:36:18.838Z,2.54
2023-04-03T06:41:18.650Z,2.99
2023-04-03T06:46:18.590Z,2.84
2023-04-03T06:51:18.541Z,3.50
2023-04-03T06:56:18.514Z,3.73
2023-04-03T07:01:18.453Z,3.76
2023-04-03T07:06:18.393Z,4.14
2023-04-03T07:11:18.339Z,4.27
2023-04-03T07:16:18.326Z,4.73
2023-04-03T07:21:18.197Z,4.97
2023-04-03T07:26:18.167Z,5.06
2023-04-03T07:31:18.275Z,5.15
2023-04-03T07:36:18.093Z,5.03
2023-04-03T07:41:17.979Z,5.42
2023-04-03T07:46:18.219Z,5.58
2023-04-03T07:51:17.981Z,5.86
2023-04-03T07:56:17.960Z,5.94
2023-04-03T08:01:17.826Z,6.08
2023-04-03T08:06:19.991Z,6.09
2023-04-03T08:11:18.673Z,6.34
2023-04-03T08:16:18.119Z,6.41
2023-04-03T08:21:17.732Z,6.64
2023-04-03T08:26:17.499Z,7.12
2023-04-03T08:31:17.473Z,7.27
2023-04-03T08:36:17.564Z,7.17
2023-04-03T08:41:17.536Z,7.63
2023-04-03T08:46:17.404Z,7.50
2023-04-03T08:51:17.234Z,7.42
2023-04-03T08:56:17.194Z,8.00
2023-04-03T09:01:17.144Z,7.98
2023-04-03T09:06:17.041Z,8.05
2023-04-03T09:11:17.725Z,7.79
2023-04-03T09:16:17.050Z,7.97
2023-04-03T09:21:16.846Z,8.08
2023-04-03T09:26:16.849Z,8.22
2023-04-03T09:31:16.795Z,8.22
2023-04-03T09:36:16.764Z,8.16
2023-04-03T09:41:16.708Z,8.45
2023-04-03T09:46:17.544Z,8.68
2023-04-03T09:51:16.577Z,9.14
2023-04-03T09:56:16.605Z,8.41
2023-04-03T10:01:16.718Z,9.46
2023-04-03T10:06:17.446Z,9.65
2023-04-03T10:11:16.442Z,8.74
2023-04-03T10:16:16.271Z,9.39
2023-04-03T10:21:26.572Z,9.38
2023-04-03T10:26:17.164Z,9.47
2023-04-03T10:31:16.220Z,9.28
2023-04-03T10:36:16.072Z,8.71
2023-04-03T10:41:17.438Z,9.24
2023-04-03T10:46:16.489Z,9.66
2023-04-03T10:51:16.055Z,9.20
2023-04-03T10:56:15.918Z,9.75
2023-04-03T11:01:15.884Z,9.48
2023-04-03T11:06:15.728Z,10.04
2023-04-03T11:11:15.693Z,10.26
2023-04-03T11:16:15.711Z,10.01
2023-04-03T11:21:15.609Z,10.05
2023-04-03T11:26:15.514Z,10.27
2023-04-03T11:31:15.516Z,9.74
2023-04-03T11:36:24.886Z,10.42
2023-04-03T11:41:16.573Z,10.45
2023-04-03T11:46:15.700Z,10.33
2023-04-03T11:51:15.248Z,10.12
2023-04-03T11:56:15.419Z,10.15
2023-04-03T12:01:15.281Z,10.11
2023-04-03T12:06:15.090Z,10.27
2023-04-03T12:11:15.079Z,10.22
2023-04-03T12:16:15.132Z,10.30
2023-04-03T12:22:13.245Z,10.33
2023-04-03T12:27:13.213Z,9.65
2023-04-03T12:32:13.121Z,9.90
2023-04-03T12:37:13.099Z,10.14
2023-04-03T12:42:13.090Z,10.17
2023-04-03T12:47:13.039Z,10.40
2023-04-03T12:52:12.958Z,10.07
2023-04-03T12:57:12.952Z,9.60
2023-04-03T13:02:12.882Z,10.04
2023-04-03T13:07:12.780Z,10.67
2023-04-03T13:12:12.822Z,10.51
2023-04-03T13:17:12.759Z,9.83
2023-04-03T13:22:12.657Z,10.25
2023-04-03T13:27:12.597Z,9.86
2023-04-03T13:32:12.515Z,10.04
2023-04-03T13:37:12.451Z,10.11
2023-04-03T13:42:12.457Z,9.94
2023-04-03T13:47:12.354Z,9.78
2023-04-03T13:52:12.308Z,10.02
2023-04-03T13:57:12.274Z,10.04
2023-04-03T14:02:12.187Z,9.68
2023-04-03T14:07:12.151Z,9.83
2023-04-03T14:12:20.949Z,9.66
2023-04-03T14:17:13.026Z,9.65
2023-04-03T14:22:13.005Z,9.47
2023-04-03T14:27:12.003Z,9.65
2023-04-03T14:32:15.088Z,9.42
2023-04-03T14:37:11.856Z,9.57
2023-04-03T14:42:11.828Z,9.47
2023-04-03T14:47:14.357Z,9.33
2023-04-03T14:52:12.730Z,9.47
2023-04-03T14:57:11.591Z,9.61
2023-04-03T15:02:11.609Z,9.57
2023-04-03T15:07:11.491Z,9.46
2023-04-03T15:12:11.397Z,9.76
2023-04-03T15:17:11.449Z,9.36
2023-04-03T15:22:11.343Z,9.15
2023-04-03T15:27:11.301Z,8.98
2023-04-03T15:32:11.464Z,9.18
2023-04-03T15:37:11.186Z,9.15
2023-04-03T15:42:11.153Z,9.02
2023-04-03T15:47:11.074Z,8.98
2023-04-03T15:52:10.983Z,8.89
2023-04-03T15:57:11.073Z,9.14
2023-04-03T16:02:10.961Z,8.94
2023-04-03T16:07:10.844Z,8.79
2023-04-03T16:12:10.834Z,8.66
2023-04-03T16:17:10.711Z,8.63
2023-04-03T16:22:10.669Z,8.53
2023-04-03T16:27:10.636Z,8.56
2023-04-03T16:32:10.615Z,8.62
2023-04-03T16:37:10.502Z,8.56
2023-04-03T16:42:10.530Z,8.43
2023-04-03T16:47:10.368Z,8.40
2023-04-03T16:52:10.310Z,8.48
2023-04-03T16:57:10.295Z,8.52
2023-04-03T17:02:10.230Z,8.37
2023-04-03T17:07:10.198Z,8.19
2023-04-03T17:12:10.216Z,8.15
2023-04-03T17:17:10.099Z,8.11
2023-04-03T17:22:10.017Z,8.02
2023-04-03T17:27:10.014Z,7.87
2023-04-03T17:32:10.038Z,7.80
2023-04-03T17:37:10.000Z,8.01
2023-04-03T17:42:09.759Z,7.69
2023-04-03T17:47:09.790Z,7.63
2023-04-03T17:52:09.694Z,7.67
2023-04-03T17:57:09.589Z,7.55
2023-04-03T18:02:09.576Z,7.39
2023-04-03T18:07:09.721Z,7.55
2023-04-03T18:12:09.438Z,7.21
2023-04-03T18:17:09.406Z,7.20
2023-04-03T18:22:09.416Z,6.92
2023-04-03T18:28:42.435Z,7.12
2023-04-03T18:33:42.472Z,6.98
2023-04-03T18:38:42.523Z,6.76
2023-04-03T18:43:42.579Z,6.88
2023-04-03T18:48:42.208Z,6.89
2023-04-03T18:53:44.095Z,6.85
2023-04-03T18:58:42.097Z,6.62
2023-04-03T19:03:46.558Z,6.54
2023-04-03T19:09:04.220Z,6.66
2023-04-03T19:13:57.819Z,6.49
2023-04-03T19:18:47.362Z,6.43
2023-04-03T19:23:41.650Z,6.46
2023-04-03T19:28:42.056Z,6.18
2023-04-03T19:33:42.230Z,6.41
2023-04-03T19:38:41.483Z,6.34
2023-04-03T19:43:41.624Z,6.09
2023-04-03T19:48:41.505Z,6.27
2023-04-03T19:53:42.921Z,5.90
2023-04-03T19:58:42.034Z,5.85
2023-04-03T20:03:41.540Z,5.99
2023-04-03T20:08:53.287Z,5.91
2023-04-03T20:13:44.004Z,5.74
2023-04-03T20:18:42.667Z,5.83
2023-04-03T20:23:42.592Z,5.93
2023-04-03T20:28:43.824Z,5.63
2023-04-03T20:33:42.825Z,5.46
2023-04-03T20:38:42.035Z,5.46
2023-04-03T20:43:41.961Z,5.56
2023-04-03T20:48:41.093Z,5.56
2023-04-03T20:53:41.306Z,5.31
2023-04-03T20:58:42.531Z,5.28
2023-04-03T21:03:41.459Z,5.04
2023-04-03T21:08:43.668Z,5.24
2023-04-03T21:13:40.734Z,5.06
2023-04-03T21:18:40.997Z,5.12
2023-04-03T21:23:43.890Z,5.02
2023-04-03T21:28:41.678Z,4.92
2023-04-03T21:33:42.738Z,4.78
2023-04-03T21:38:40.416Z,4.66
2023-04-03T21:43:41.169Z,4.50
2023-04-03T21:48:40.287Z,4.44
2023-04-03T21:53:41.487Z,4.26
2023-04-03T21:58:42.994Z,4.08
2023-04-03T22:03:40.385Z,3.86
2023-04-03T22:08:40.418Z,3.76
2023-04-03T22:13:41.289Z,3.58
2023-04-03T22:18:39.982Z,3.50
2023-04-03T22:23:40.935Z,3.32
2023-04-03T22:28:43.954Z,3.14
2023-04-03T22:33:40.177Z,2.99
2023-04-03T22:38:40.320Z,2.84
2023-04-03T22:43:39.983Z,2.72
2023-04-03T22:48:40.389Z,2.64
2023-04-03T22:53:39.602Z,2.53
2023-04-03T22:58:39.751Z,2.43
2023-04-03T23:03:40.409Z,2.28
2023-04-03T23:08:39.428Z,2.14
2023-04-03T23:13:39.550Z,2.02
2023-04-03T23:18:39.938Z,1.95
2023-04-03T23:23:39.285Z,1.95
2023-04-03T23:28:39.369Z,1.91
2023-04-03T23:33:39.336Z,1.87
2023-04-03T23:38:39.728Z,1.81
2023-04-03T23:43:41.291Z,1.72
2023-04-03T23:48:40.031Z,1.59
2023-04-03T23:53:39.216Z,1.54
2023-04-03T23:58:40.083Z,1.47
